Terminal Aerodrome Forecast
Issued by NWS Shreveport, LA

Home | Current Version | Previous Version | Text Only | Print | Product List | Glossary On
Versions: 1 2 3 4 5 6 7 8 9 10 11 12 13 14 15 16 17 18 19 20
000
FTUS44 KSHV 072347 CCA
TAFTYR
TAF COR
KTYR 072347Z 0800/0824 18007KT P6SM VCTS SCT050CB
      TEMPO 0800/0801 23010G20KT 4SM -TSRA BKN050CB
     FM081200 19012KT P6SM BKN010
      TEMPO 0812/0814 BKN008
     FM081500 20013G24KT P6SM SCT025 SCT035 BKN250=

USA.gov is the U.S. government's official web portal to all federal, state and local government web resources and services.